createdAt,value
2017-10-28T00:00:16.851Z,0
2017-10-28T00:00:57.396Z,0
2017-10-28T00:01:37.931Z,0
2017-10-28T00:02:18.461Z,0
2017-10-28T00:02:58.994Z,0
2017-10-28T00:03:39.528Z,0
2017-10-28T00:04:20.068Z,0
2017-10-28T00:05:00.605Z,0
2017-10-28T00:05:41.147Z,0
2017-10-28T00:06:21.685Z,0
2017-10-28T00:07:02.219Z,0
2017-10-28T00:07:42.749Z,0
2017-10-28T00:08:23.284Z,0
2017-10-28T00:09:03.823Z,0
2017-10-28T00:09:44.356Z,0
2017-10-28T00:10:24.890Z,0
2017-10-28T00:11:05.422Z,0
2017-10-28T00:11:45.959Z,0
2017-10-28T00:12:26.492Z,0
2017-10-28T00:13:07.025Z,0
2017-10-28T00:13:47.562Z,0
2017-10-28T00:14:28.098Z,0
2017-10-28T00:15:08.633Z,0
2017-10-28T00:15:49.162Z,0
2017-10-28T00:16:29.699Z,0
2017-10-28T00:17:10.298Z,0
2017-10-28T00:17:50.779Z,0
2017-10-28T00:18:31.301Z,0
2017-10-28T00:19:11.845Z,0
2017-10-28T00:19:52.378Z,0
2017-10-28T00:20:32.911Z,0
2017-10-28T00:21:13.444Z,0
2017-10-28T00:21:53.981Z,0
2017-10-28T00:22:34.563Z,0
2017-10-28T00:23:15.098Z,0
2017-10-28T00:23:55.636Z,0
2017-10-28T00:24:36.165Z,0
2017-10-28T00:25:16.703Z,0
2017-10-28T00:25:57.232Z,0
2017-10-28T00:26:37.771Z,0
2017-10-28T00:27:18.307Z,0
2017-10-28T00:27:58.940Z,0
2017-10-28T00:28:39.474Z,0
2017-10-28T00:29:20.018Z,0
2017-10-28T00:30:00.557Z,0
2017-10-28T00:30:41.095Z,0
2017-10-28T00:31:21.629Z,0
2017-10-28T00:32:02.160Z,0
2017-10-28T00:32:42.695Z,0
2017-10-28T00:33:23.228Z,0
2017-10-28T00:34:03.759Z,0
2017-10-28T00:34:44.292Z,0
2017-10-28T00:35:24.827Z,0
2017-10-28T00:36:05.358Z,0
2017-10-28T00:36:45.923Z,0
2017-10-28T00:37:26.464Z,0
2017-10-28T00:38:06.999Z,0
2017-10-28T00:38:47.534Z,0
2017-10-28T00:39:28.067Z,0
2017-10-28T00:40:08.597Z,0
2017-10-28T00:40:49.138Z,0
2017-10-28T00:41:29.673Z,0
2017-10-28T00:42:10.209Z,0
2017-10-28T00:42:50.752Z,0
2017-10-28T00:43:31.290Z,0
2017-10-28T00:44:11.829Z,0
2017-10-28T00:44:52.361Z,0
2017-10-28T00:45:32.893Z,0
2017-10-28T00:46:13.428Z,0
2017-10-28T00:46:53.962Z,0
2017-10-28T00:47:34.504Z,0
2017-10-28T00:48:15.068Z,0
2017-10-28T00:48:55.628Z,0
2017-10-28T00:49:36.170Z,0
2017-10-28T00:50:16.676Z,0
2017-10-28T00:50:57.205Z,0
2017-10-28T00:51:37.752Z,0
2017-10-28T00:52:18.279Z,0
2017-10-28T00:52:58.818Z,0
2017-10-28T00:53:39.352Z,0
2017-10-28T00:54:19.889Z,0
2017-10-28T00:55:00.484Z,0
2017-10-28T00:55:41.014Z,0
2017-10-28T00:56:21.549Z,0
2017-10-28T00:57:02.081Z,0
2017-10-28T00:57:42.612Z,0
2017-10-28T00:58:23.148Z,0
2017-10-28T00:59:03.683Z,0
2017-10-28T00:59:44.220Z,0
2017-10-28T01:00:24.755Z,0
2017-10-28T01:01:05.294Z,0
2017-10-28T01:01:45.837Z,0
2017-10-28T01:02:26.370Z,0
2017-10-28T01:03:06.900Z,0
2017-10-28T01:03:47.435Z,0
2017-10-28T01:04:27.971Z,0
2017-10-28T01:05:08.509Z,0
2017-10-28T01:05:49.047Z,0
2017-10-28T01:06:30.157Z,0
2017-10-28T01:07:10.703Z,0
2017-10-28T01:07:51.236Z,0
2017-10-28T01:08:31.809Z,0
2017-10-28T01:09:12.351Z,0
2017-10-28T01:09:52.893Z,0
2017-10-28T01:10:33.419Z,0
2017-10-28T01:11:13.958Z,0
2017-10-28T01:11:54.490Z,0
2017-10-28T01:12:35.019Z,0
2017-10-28T01:13:15.553Z,0
2017-10-28T01:13:56.091Z,0
2017-10-28T01:14:36.624Z,0
2017-10-28T01:15:17.163Z,0
2017-10-28T01:15:57.698Z,0
2017-10-28T01:16:38.239Z,0
2017-10-28T01:17:18.765Z,0
2017-10-28T01:17:59.302Z,0
2017-10-28T01:18:39.837Z,0
2017-10-28T01:19:20.374Z,0
2017-10-28T01:20:00.913Z,0
2017-10-28T01:20:41.446Z,0
2017-10-28T01:21:21.985Z,0
2017-10-28T01:22:02.522Z,0
2017-10-28T01:22:43.059Z,0
2017-10-28T01:23:23.599Z,0
2017-10-28T01:24:04.132Z,0
2017-10-28T01:24:44.668Z,0
2017-10-28T01:25:25.203Z,0
2017-10-28T01:26:05.740Z,0
2017-10-28T01:26:46.282Z,0
2017-10-28T01:27:26.814Z,0
2017-10-28T01:28:07.353Z,0
2017-10-28T01:28:47.885Z,0
2017-10-28T01:29:28.422Z,0
2017-10-28T01:30:08.957Z,0
2017-10-28T01:30:49.478Z,0
2017-10-28T01:31:30.016Z,0
2017-10-28T01:32:10.548Z,0
2017-10-28T01:32:51.074Z,0
2017-10-28T01:33:31.607Z,0
2017-10-28T01:34:12.147Z,0
2017-10-28T01:34:52.681Z,0
2017-10-28T01:35:33.218Z,0
2017-10-28T01:36:13.755Z,0
2017-10-28T01:36:54.286Z,0
2017-10-28T01:37:34.826Z,0
2017-10-28T01:38:15.379Z,0
2017-10-28T01:38:55.912Z,0
2017-10-28T01:39:36.445Z,0
2017-10-28T01:40:16.979Z,0
2017-10-28T01:40:57.514Z,0
2017-10-28T01:41:38.050Z,0
2017-10-28T01:42:18.583Z,0
2017-10-28T01:42:59.121Z,0
2017-10-28T01:43:39.662Z,0
2017-10-28T01:44:20.193Z,0
2017-10-28T01:45:00.730Z,0
2017-10-28T01:45:41.273Z,0
2017-10-28T01:46:21.807Z,0
2017-10-28T01:47:02.343Z,0
2017-10-28T01:47:42.889Z,0
2017-10-28T01:48:23.430Z,0
2017-10-28T01:49:03.965Z,0
2017-10-28T01:49:44.501Z,0
2017-10-28T01:50:25.034Z,0
2017-10-28T01:51:05.582Z,0
2017-10-28T01:51:46.115Z,0
2017-10-28T01:52:26.651Z,0
2017-10-28T01:53:07.194Z,0
2017-10-28T01:53:47.730Z,0
2017-10-28T01:54:28.264Z,0
2017-10-28T01:55:08.800Z,0
2017-10-28T01:55:49.338Z,0
2017-10-28T01:56:29.879Z,0
2017-10-28T01:57:10.419Z,0
2017-10-28T01:57:50.955Z,0
2017-10-28T01:58:31.495Z,0
2017-10-28T01:59:12.060Z,0
2017-10-28T01:59:52.594Z,0
2017-10-28T02:00:33.130Z,0
2017-10-28T02:01:13.668Z,0
2017-10-28T02:01:54.206Z,0
2017-10-28T02:02:34.738Z,0
2017-10-28T02:03:15.285Z,0
2017-10-28T02:03:55.896Z,0
2017-10-28T02:04:36.341Z,0
2017-10-28T02:05:16.884Z,0
2017-10-28T02:05:57.415Z,0
2017-10-28T02:06:37.983Z,0
2017-10-28T02:07:18.517Z,0
2017-10-28T02:07:59.051Z,0
2017-10-28T02:08:39.589Z,0
2017-10-28T02:09:20.125Z,0
2017-10-28T02:10:00.666Z,0
2017-10-28T02:10:41.204Z,0
2017-10-28T02:11:21.737Z,0
2017-10-28T02:12:02.266Z,0
2017-10-28T02:12:42.798Z,0
2017-10-28T02:13:23.337Z,0
2017-10-28T02:14:03.874Z,0
2017-10-28T02:14:44.398Z,0
2017-10-28T02:15:24.931Z,0
2017-10-28T02:16:05.465Z,0
2017-10-28T02:16:45.997Z,0
2017-10-28T02:17:26.536Z,0
2017-10-28T02:18:07.075Z,0
2017-10-28T02:18:47.612Z,0
2017-10-28T02:19:28.150Z,0
2017-10-28T02:20:08.693Z,0
2017-10-28T02:20:49.228Z,0
2017-10-28T02:21:29.758Z,0
2017-10-28T02:22:10.301Z,0
2017-10-28T02:22:50.834Z,0
2017-10-28T02:23:31.367Z,0
2017-10-28T02:24:11.897Z,0
2017-10-28T02:24:52.429Z,0
2017-10-28T02:25:32.971Z,0
2017-10-28T02:26:13.502Z,0
2017-10-28T02:26:54.038Z,0
2017-10-28T02:27:34.580Z,0
2017-10-28T02:28:15.123Z,0
2017-10-28T02:28:55.661Z,0
2017-10-28T02:29:36.199Z,0
2017-10-28T02:30:16.737Z,0
2017-10-28T02:30:57.264Z,0
2017-10-28T02:31:37.800Z,0
2017-10-28T02:32:18.338Z,0
2017-10-28T02:32:58.876Z,0
2017-10-28T02:33:39.409Z,0
2017-10-28T02:34:19.953Z,0
2017-10-28T02:35:00.482Z,0
2017-10-28T02:35:41.018Z,0
2017-10-28T02:36:21.554Z,0
2017-10-28T02:37:02.090Z,0
2017-10-28T02:37:42.627Z,0
2017-10-28T02:38:23.226Z,0
2017-10-28T02:39:03.697Z,0
2017-10-28T02:39:44.228Z,0
2017-10-28T02:40:24.764Z,0
2017-10-28T02:41:05.299Z,0
2017-10-28T02:41:45.832Z,0
2017-10-28T02:42:26.363Z,0
2017-10-28T02:43:06.895Z,0
2017-10-28T02:43:47.432Z,0
2017-10-28T02:44:27.971Z,0
2017-10-28T02:45:08.502Z,0
2017-10-28T02:45:49.036Z,0
2017-10-28T02:46:29.567Z,0
2017-10-28T02:47:10.106Z,0
2017-10-28T02:47:50.643Z,0
2017-10-28T02:48:31.183Z,0
2017-10-28T02:49:11.722Z,0
2017-10-28T02:49:52.257Z,0
2017-10-28T02:50:32.793Z,0
2017-10-28T02:51:13.335Z,0
2017-10-28T02:51:53.868Z,0
2017-10-28T02:52:34.400Z,0
2017-10-28T02:53:14.939Z,0
2017-10-28T02:53:55.475Z,0
2017-10-28T02:54:36.007Z,0
2017-10-28T02:55:16.543Z,0
2017-10-28T02:55:57.075Z,0
2017-10-28T02:56:37.622Z,0
2017-10-28T02:57:18.149Z,0
2017-10-28T02:57:58.683Z,0
2017-10-28T02:58:39.224Z,0
2017-10-28T02:59:19.755Z,0
2017-10-28T03:00:00.295Z,0
2017-10-28T03:00:40.832Z,0
2017-10-28T03:01:21.361Z,0
2017-10-28T03:02:01.897Z,0
2017-10-28T03:02:42.433Z,0
2017-10-28T03:03:22.968Z,0
2017-10-28T03:04:03.508Z,0
2017-10-28T03:04:44.040Z,0
2017-10-28T03:05:24.572Z,0
2017-10-28T03:06:05.108Z,0
2017-10-28T03:06:45.649Z,0
2017-10-28T03:07:26.191Z,0
2017-10-28T03:08:06.719Z,0
2017-10-28T03:08:47.252Z,0
2017-10-28T03:09:27.791Z,0
2017-10-28T03:10:08.323Z,0
2017-10-28T03:10:48.860Z,0
2017-10-28T03:11:29.399Z,0
2017-10-28T03:12:09.940Z,0
2017-10-28T03:12:50.477Z,0
2017-10-28T03:13:31.017Z,0
2017-10-28T03:14:11.554Z,0
2017-10-28T03:14:52.085Z,0
2017-10-28T03:15:32.625Z,0
2017-10-28T03:16:13.157Z,0
2017-10-28T03:16:53.700Z,0
2017-10-28T03:17:34.237Z,0
2017-10-28T03:18:14.764Z,0
2017-10-28T03:18:55.309Z,0
2017-10-28T03:19:35.847Z,0
2017-10-28T03:20:16.384Z,0
2017-10-28T03:20:56.920Z,0
2017-10-28T03:21:37.459Z,0
2017-10-28T03:22:18.001Z,0
2017-10-28T03:22:58.537Z,0
2017-10-28T03:23:39.075Z,0
2017-10-28T03:24:19.645Z,0
2017-10-28T03:25:00.179Z,0
2017-10-28T03:25:40.717Z,0
2017-10-28T03:26:21.246Z,0
2017-10-28T03:27:01.777Z,0
2017-10-28T03:27:42.314Z,0
2017-10-28T03:28:22.854Z,0
2017-10-28T03:29:03.396Z,0
2017-10-28T03:29:43.932Z,0
2017-10-28T03:30:24.472Z,0
2017-10-28T03:31:05.000Z,0
2017-10-28T03:31:45.539Z,0
2017-10-28T03:32:26.075Z,0
2017-10-28T03:33:06.609Z,0
2017-10-28T03:33:47.146Z,0
2017-10-28T03:34:27.666Z,0
2017-10-28T03:35:08.196Z,0
2017-10-28T03:35:48.736Z,0
2017-10-28T03:36:29.274Z,0
2017-10-28T03:37:09.813Z,0
2017-10-28T03:37:50.352Z,0
2017-10-28T03:38:30.892Z,0
2017-10-28T03:39:11.429Z,0
2017-10-28T03:39:51.958Z,0
2017-10-28T03:40:32.495Z,0
2017-10-28T03:41:13.032Z,0
2017-10-28T03:41:53.569Z,0
2017-10-28T03:42:34.108Z,0
2017-10-28T03:43:14.642Z,0
2017-10-28T03:43:55.182Z,0
2017-10-28T03:44:35.725Z,0
2017-10-28T03:45:16.262Z,0
2017-10-28T03:45:56.817Z,0
2017-10-28T03:46:37.331Z,0
2017-10-28T03:47:17.869Z,0
2017-10-28T03:47:58.402Z,0
2017-10-28T03:48:38.938Z,0
2017-10-28T03:49:19.479Z,0
2017-10-28T03:50:00.019Z,0
2017-10-28T03:50:40.561Z,0
2017-10-28T03:51:21.093Z,0
2017-10-28T03:52:01.634Z,0
2017-10-28T03:52:42.174Z,0
2017-10-28T03:53:22.719Z,0
2017-10-28T03:54:03.253Z,0
2017-10-28T03:54:43.789Z,0
2017-10-28T03:55:24.327Z,0
2017-10-28T03:56:04.866Z,0
2017-10-28T03:56:45.414Z,0
2017-10-28T03:57:25.934Z,0
2017-10-28T03:58:06.496Z,0
2017-10-28T03:58:47.112Z,0
2017-10-28T03:59:27.648Z,0
2017-10-28T04:00:08.169Z,0
2017-10-28T04:00:48.706Z,0
2017-10-28T04:01:29.240Z,0
2017-10-28T04:02:09.786Z,0
2017-10-28T04:02:50.321Z,0
2017-10-28T04:03:30.854Z,0
2017-10-28T04:04:11.388Z,0
2017-10-28T04:04:51.921Z,0
2017-10-28T04:05:32.445Z,0
2017-10-28T04:06:12.980Z,0
2017-10-28T04:06:53.507Z,0
2017-10-28T04:07:34.053Z,0
2017-10-28T04:08:14.590Z,0
2017-10-28T04:08:55.126Z,0
2017-10-28T04:09:35.663Z,0
2017-10-28T04:10:16.201Z,0
2017-10-28T04:10:56.741Z,0
2017-10-28T04:11:37.279Z,0
2017-10-28T04:12:17.818Z,0
2017-10-28T04:12:58.357Z,0
2017-10-28T04:13:38.890Z,0
2017-10-28T04:14:19.425Z,0
2017-10-28T04:14:59.960Z,0
2017-10-28T04:15:40.496Z,0
2017-10-28T04:16:21.035Z,0
2017-10-28T04:17:01.573Z,0
2017-10-28T04:17:42.102Z,0
2017-10-28T04:18:22.641Z,0
2017-10-28T04:19:03.175Z,0
2017-10-28T04:19:43.708Z,0
2017-10-28T04:20:24.271Z,0
2017-10-28T04:21:04.806Z,0
2017-10-28T04:21:45.335Z,0
2017-10-28T04:22:25.891Z,0
2017-10-28T04:23:06.430Z,0
2017-10-28T04:23:46.972Z,0
2017-10-28T04:24:27.524Z,0
2017-10-28T04:25:08.056Z,0
2017-10-28T04:25:48.590Z,0
2017-10-28T04:26:29.128Z,0
2017-10-28T04:27:09.665Z,0
2017-10-28T04:27:50.207Z,0
2017-10-28T04:28:30.743Z,0
2017-10-28T04:29:11.275Z,0
2017-10-28T04:29:51.821Z,0
2017-10-28T04:30:32.353Z,0
2017-10-28T04:31:12.886Z,0
2017-10-28T04:31:53.422Z,0
2017-10-28T04:32:33.962Z,0
2017-10-28T04:33:14.505Z,0
2017-10-28T04:33:55.028Z,0
2017-10-28T04:34:35.564Z,0
2017-10-28T04:35:16.099Z,0
2017-10-28T04:35:56.634Z,0
2017-10-28T04:36:37.166Z,0
2017-10-28T04:37:17.715Z,0
2017-10-28T04:37:58.250Z,0
2017-10-28T04:38:38.780Z,0
2017-10-28T04:39:19.315Z,0
2017-10-28T04:39:59.849Z,0
2017-10-28T04:40:40.382Z,0
2017-10-28T04:41:20.921Z,0
2017-10-28T04:42:01.463Z,0
2017-10-28T04:42:41.999Z,0
2017-10-28T04:43:22.534Z,0
2017-10-28T04:44:03.073Z,0
2017-10-28T04:44:43.608Z,0
2017-10-28T04:45:24.147Z,0
2017-10-28T04:46:04.678Z,0
2017-10-28T04:46:45.215Z,0
2017-10-28T04:47:25.754Z,0
2017-10-28T04:48:06.286Z,0
2017-10-28T04:48:46.819Z,0
2017-10-28T04:49:27.357Z,0
2017-10-28T04:50:07.890Z,0
2017-10-28T04:50:48.427Z,0
2017-10-28T04:51:28.968Z,0
2017-10-28T04:52:09.496Z,0
2017-10-28T04:52:50.042Z,0
2017-10-28T04:53:30.578Z,0
2017-10-28T04:54:11.105Z,0
2017-10-28T04:54:51.641Z,0
2017-10-28T04:55:32.183Z,0
2017-10-28T04:56:12.713Z,0
2017-10-28T04:56:53.246Z,0
2017-10-28T04:57:33.779Z,0
2017-10-28T04:58:14.319Z,0
2017-10-28T04:58:54.848Z,0
2017-10-28T04:59:35.387Z,0
2017-10-28T05:00:15.919Z,0
2017-10-28T05:00:56.463Z,0
2017-10-28T05:01:36.999Z,0
2017-10-28T05:02:17.531Z,0
2017-10-28T05:02:58.079Z,0
2017-10-28T05:03:38.607Z,0
2017-10-28T05:04:19.151Z,0
2017-10-28T05:04:59.686Z,0
2017-10-28T05:05:40.221Z,0
2017-10-28T05:06:20.764Z,0
2017-10-28T05:07:01.303Z,0
2017-10-28T05:07:41.843Z,0
2017-10-28T05:08:22.383Z,0
2017-10-28T05:09:02.924Z,0
2017-10-28T05:09:43.455Z,0
2017-10-28T05:10:24.021Z,0
2017-10-28T05:11:04.558Z,0
2017-10-28T05:11:45.094Z,0
2017-10-28T05:12:25.617Z,0
2017-10-28T05:13:06.161Z,0
2017-10-28T05:13:46.689Z,0
2017-10-28T05:14:27.230Z,0
2017-10-28T05:15:07.769Z,0
2017-10-28T05:15:48.306Z,0
2017-10-28T05:16:28.846Z,0
2017-10-28T05:17:09.381Z,0
2017-10-28T05:17:49.915Z,0
2017-10-28T05:18:30.465Z,0
2017-10-28T05:19:10.992Z,0
2017-10-28T05:19:51.535Z,0
2017-10-28T05:20:32.077Z,0
2017-10-28T05:21:12.608Z,0
2017-10-28T05:21:53.145Z,0
2017-10-28T05:22:33.691Z,0
2017-10-28T05:23:14.218Z,0
2017-10-28T05:23:54.748Z,0
2017-10-28T05:24:35.286Z,0
2017-10-28T05:25:15.834Z,0
2017-10-28T05:25:56.367Z,0
2017-10-28T05:26:36.907Z,0
2017-10-28T05:27:17.441Z,0
2017-10-28T05:27:57.984Z,0
2017-10-28T05:28:38.523Z,0
2017-10-28T05:29:19.055Z,0
2017-10-28T05:29:59.603Z,0
2017-10-28T05:30:40.131Z,0
2017-10-28T05:31:20.661Z,0
2017-10-28T05:32:01.197Z,0
2017-10-28T05:32:41.734Z,0
2017-10-28T05:33:22.272Z,0
2017-10-28T05:34:02.804Z,0
2017-10-28T05:34:43.339Z,0
2017-10-28T05:35:23.875Z,0
2017-10-28T05:36:04.416Z,0
2017-10-28T05:36:44.954Z,0
2017-10-28T05:37:25.492Z,0
2017-10-28T05:38:06.033Z,0
2017-10-28T05:38:46.567Z,0
2017-10-28T05:39:27.102Z,0
2017-10-28T05:40:07.634Z,0
2017-10-28T05:40:48.177Z,0
2017-10-28T05:41:28.719Z,0
2017-10-28T05:42:09.258Z,0
2017-10-28T05:42:49.797Z,0
2017-10-28T05:43:30.334Z,0
2017-10-28T05:44:10.875Z,0
2017-10-28T05:44:51.407Z,0
2017-10-28T05:45:31.945Z,0
2017-10-28T05:46:12.480Z,0
2017-10-28T05:46:53.070Z,0
2017-10-28T05:47:33.608Z,0
2017-10-28T05:48:14.141Z,0
2017-10-28T05:48:54.675Z,0
2017-10-28T05:49:35.205Z,0
2017-10-28T05:50:15.743Z,0
2017-10-28T05:50:56.271Z,0
2017-10-28T05:51:36.812Z,0
2017-10-28T05:52:17.339Z,4
2017-10-28T05:52:57.878Z,4
2017-10-28T05:53:38.414Z,4
2017-10-28T05:54:18.951Z,4
2017-10-28T05:54:59.480Z,4
2017-10-28T05:55:40.011Z,4
2017-10-28T05:56:20.540Z,4
2017-10-28T05:57:01.081Z,8
2017-10-28T05:57:41.619Z,8
2017-10-28T05:58:22.292Z,8
2017-10-28T05:59:02.845Z,8
2017-10-28T05:59:43.387Z,8
2017-10-28T06:00:23.948Z,12
2017-10-28T06:01:04.488Z,12
2017-10-28T06:01:45.025Z,16
2017-10-28T06:02:25.555Z,16
2017-10-28T06:03:06.085Z,16
2017-10-28T06:03:46.624Z,20
2017-10-28T06:04:27.161Z,20
2017-10-28T06:05:07.700Z,24
2017-10-28T06:05:48.242Z,24
2017-10-28T06:06:28.779Z,24
2017-10-28T06:07:09.328Z,32
2017-10-28T06:07:49.862Z,32
2017-10-28T06:08:30.398Z,32
2017-10-28T06:09:10.934Z,36
2017-10-28T06:09:51.468Z,40
2017-10-28T06:10:32.005Z,40
2017-10-28T06:11:12.540Z,44
2017-10-28T06:11:53.077Z,44
2017-10-28T06:12:33.616Z,48
2017-10-28T06:13:14.145Z,52
2017-10-28T06:13:54.680Z,56
2017-10-28T06:14:35.214Z,56
2017-10-28T06:15:15.751Z,64
2017-10-28T06:15:56.280Z,68
2017-10-28T06:16:36.818Z,68
2017-10-28T06:17:17.354Z,72
2017-10-28T06:17:57.889Z,76
2017-10-28T06:18:38.429Z,76
2017-10-28T06:19:18.959Z,80
2017-10-28T06:19:59.497Z,84
2017-10-28T06:20:40.063Z,88
2017-10-28T06:21:20.600Z,88
2017-10-28T06:22:01.141Z,88
2017-10-28T06:22:41.674Z,92
2017-10-28T06:23:22.216Z,96
2017-10-28T06:24:02.746Z,100
2017-10-28T06:24:43.283Z,108
2017-10-28T06:25:23.814Z,120
2017-10-28T06:26:04.348Z,128
2017-10-28T06:26:44.876Z,128
2017-10-28T06:27:25.415Z,132
2017-10-28T06:28:05.940Z,140
2017-10-28T06:28:46.472Z,148
2017-10-28T06:29:27.013Z,160
2017-10-28T06:30:07.549Z,176
2017-10-28T06:30:48.080Z,192
2017-10-28T06:31:28.621Z,200
2017-10-28T06:32:09.150Z,216
2017-10-28T06:32:49.678Z,232
2017-10-28T06:33:30.215Z,248
2017-10-28T06:34:10.749Z,252
2017-10-28T06:34:51.284Z,244
2017-10-28T06:35:31.816Z,232
2017-10-28T06:36:12.354Z,224
2017-10-28T06:36:52.891Z,212
2017-10-28T06:37:33.426Z,212
2017-10-28T06:38:13.959Z,224
2017-10-28T06:38:54.498Z,232
2017-10-28T06:39:35.033Z,248
2017-10-28T06:40:15.568Z,256
2017-10-28T06:40:56.106Z,256
2017-10-28T06:41:36.645Z,264
2017-10-28T06:42:17.182Z,280
2017-10-28T06:42:57.722Z,312
2017-10-28T06:43:38.260Z,320
2017-10-28T06:44:18.790Z,344
2017-10-28T06:44:59.327Z,356
2017-10-28T06:45:39.860Z,360
2017-10-28T06:46:20.395Z,380
2017-10-28T06:47:00.929Z,396
2017-10-28T06:47:41.470Z,400
2017-10-28T06:48:22.006Z,392
2017-10-28T06:49:02.543Z,388
2017-10-28T06:49:43.159Z,392
2017-10-28T06:50:23.694Z,412
2017-10-28T06:51:04.259Z,436
2017-10-28T06:51:44.767Z,436
2017-10-28T06:52:25.298Z,412
2017-10-28T06:53:05.829Z,468
2017-10-28T06:53:46.360Z,460
2017-10-28T06:54:26.897Z,516
2017-10-28T06:55:07.471Z,528
2017-10-28T06:55:48.007Z,548
2017-10-28T06:56:28.545Z,576
2017-10-28T06:57:09.087Z,596
2017-10-28T06:57:49.631Z,572
2017-10-28T06:58:30.165Z,612
2017-10-28T06:59:10.702Z,616
2017-10-28T06:59:51.237Z,628
2017-10-28T07:00:31.771Z,616
2017-10-28T07:01:12.304Z,604
2017-10-28T07:01:52.842Z,568
2017-10-28T07:02:33.372Z,520
2017-10-28T07:03:13.909Z,556
2017-10-28T07:03:54.444Z,560
2017-10-28T07:04:34.977Z,560
2017-10-28T07:05:15.515Z,548
2017-10-28T07:05:56.053Z,580
2017-10-28T07:06:36.585Z,612
2017-10-28T07:07:17.113Z,648
2017-10-28T07:07:57.661Z,664
2017-10-28T07:08:38.196Z,668
2017-10-28T07:09:18.731Z,704
2017-10-28T07:09:59.257Z,628
2017-10-28T07:10:39.797Z,668
2017-10-28T07:11:20.336Z,644
2017-10-28T07:12:00.866Z,616
2017-10-28T07:12:41.397Z,568
2017-10-28T07:13:21.934Z,584
2017-10-28T07:14:02.473Z,616
2017-10-28T07:14:43.006Z,608
2017-10-28T07:15:23.544Z,596
2017-10-28T07:16:04.067Z,588
2017-10-28T07:16:44.607Z,548
2017-10-28T07:17:25.146Z,536
2017-10-28T07:18:05.708Z,560
2017-10-28T07:18:46.219Z,584
2017-10-28T07:19:26.754Z,596
2017-10-28T07:20:07.288Z,572
2017-10-28T07:20:47.821Z,636
2017-10-28T07:21:28.357Z,672
2017-10-28T07:22:08.897Z,724
2017-10-28T07:22:49.512Z,780
2017-10-28T07:23:30.048Z,764
2017-10-28T07:24:10.585Z,732
2017-10-28T07:24:51.127Z,728
2017-10-28T07:25:31.665Z,760
2017-10-28T07:26:12.198Z,824
2017-10-28T07:26:52.740Z,880
2017-10-28T07:27:33.271Z,916
2017-10-28T07:28:13.814Z,844
2017-10-28T07:28:54.349Z,820
2017-10-28T07:29:34.919Z,904
2017-10-28T07:30:15.461Z,884
2017-10-28T07:30:55.983Z,848
2017-10-28T07:31:36.519Z,788
2017-10-28T07:32:17.051Z,800
2017-10-28T07:32:57.585Z,812
2017-10-28T07:33:38.149Z,776
2017-10-28T07:34:18.730Z,828
2017-10-28T07:34:59.286Z,896
2017-10-28T07:35:39.824Z,824
2017-10-28T07:36:20.367Z,892
2017-10-28T07:37:00.899Z,996
2017-10-28T07:37:41.439Z,972
2017-10-28T07:38:21.976Z,1056
2017-10-28T07:39:02.522Z,1028
2017-10-28T07:39:43.060Z,1100
2017-10-28T07:40:23.576Z,992
2017-10-28T07:41:04.108Z,1092
2017-10-28T07:41:44.644Z,1100
2017-10-28T07:42:25.178Z,1152
2017-10-28T07:43:05.712Z,1208
2017-10-28T07:43:46.249Z,1272
2017-10-28T07:44:26.791Z,1316
2017-10-28T07:45:07.325Z,1276
2017-10-28T07:45:47.855Z,1340
2017-10-28T07:46:28.400Z,1316
2017-10-28T07:47:08.927Z,1372
2017-10-28T07:47:49.463Z,1372
2017-10-28T07:48:29.998Z,1204
2017-10-28T07:49:10.528Z,1092
2017-10-28T07:49:51.054Z,1172
2017-10-28T07:50:31.590Z,1360
2017-10-28T07:51:12.134Z,1208
2017-10-28T07:51:52.671Z,1220
2017-10-28T07:52:33.214Z,1380
2017-10-28T07:53:13.756Z,1352
2017-10-28T07:53:54.292Z,1400
2017-10-28T07:54:34.832Z,1344
2017-10-28T07:55:15.368Z,1412
2017-10-28T07:55:55.903Z,1452
2017-10-28T07:56:36.440Z,1396
2017-10-28T07:57:16.976Z,1360
2017-10-28T07:57:57.518Z,1408
2017-10-28T07:58:38.055Z,1576
2017-10-28T07:59:18.577Z,1480
2017-10-28T07:59:59.109Z,1408
2017-10-28T08:00:39.649Z,1332
2017-10-28T08:01:20.186Z,1228
2017-10-28T08:02:00.710Z,1184
2017-10-28T08:02:41.243Z,1240
2017-10-28T08:03:21.774Z,1220
2017-10-28T08:04:02.319Z,1216
2017-10-28T08:04:42.844Z,1188
2017-10-28T08:05:23.380Z,1200
2017-10-28T08:06:03.921Z,1136
2017-10-28T08:06:44.463Z,1164
2017-10-28T08:07:24.993Z,1248
2017-10-28T08:08:05.535Z,1336
2017-10-28T08:08:46.074Z,1308
2017-10-28T08:09:26.612Z,1232
2017-10-28T08:10:07.152Z,1164
2017-10-28T08:10:47.687Z,1116
2017-10-28T08:11:28.215Z,1096
2017-10-28T08:12:08.754Z,1016
2017-10-28T08:12:49.289Z,996
2017-10-28T08:13:29.824Z,1028
2017-10-28T08:14:10.369Z,1020
2017-10-28T08:14:50.905Z,1052
2017-10-28T08:15:31.440Z,1012
2017-10-28T08:16:11.983Z,980
2017-10-28T08:16:52.521Z,972
2017-10-28T08:17:33.063Z,996
2017-10-28T08:18:13.595Z,1008
2017-10-28T08:18:54.130Z,1116
2017-10-28T08:19:34.677Z,1120
2017-10-28T08:20:15.208Z,1056
2017-10-28T08:20:55.743Z,1088
2017-10-28T08:21:36.282Z,1024
2017-10-28T08:22:16.814Z,940
2017-10-28T08:22:57.346Z,968
2017-10-28T08:23:37.875Z,980
2017-10-28T08:24:18.429Z,928
2017-10-28T08:24:58.947Z,872
2017-10-28T08:25:39.479Z,888
2017-10-28T08:26:20.011Z,948
2017-10-28T08:27:00.550Z,940
2017-10-28T08:27:41.079Z,1024
2017-10-28T08:28:21.619Z,952
2017-10-28T08:29:02.168Z,784
2017-10-28T08:29:42.694Z,892
2017-10-28T08:30:23.231Z,828
2017-10-28T08:31:03.768Z,924
2017-10-28T08:31:44.304Z,1012
2017-10-28T08:32:24.840Z,952
2017-10-28T08:33:05.373Z,828
2017-10-28T08:33:45.909Z,784
2017-10-28T08:34:26.449Z,896
2017-10-28T08:35:06.986Z,1212
2017-10-28T08:35:47.530Z,940
2017-10-28T08:36:28.065Z,876
2017-10-28T08:37:08.597Z,772
2017-10-28T08:37:49.131Z,800
2017-10-28T08:38:29.675Z,952
2017-10-28T08:39:10.209Z,916
2017-10-28T08:39:50.741Z,1052
2017-10-28T08:40:31.279Z,868
2017-10-28T08:41:11.813Z,980
2017-10-28T08:41:52.347Z,1032
2017-10-28T08:42:32.882Z,1348
2017-10-28T08:43:13.428Z,1668
2017-10-28T08:43:53.961Z,1452
2017-10-28T08:44:34.495Z,1084
2017-10-28T08:45:15.038Z,1464
2017-10-28T08:45:55.575Z,1336
2017-10-28T08:46:36.115Z,1264
2017-10-28T08:47:16.645Z,1288
2017-10-28T08:47:57.188Z,1308
2017-10-28T08:48:37.727Z,1240
2017-10-28T08:49:18.266Z,1148
2017-10-28T08:49:58.799Z,1568
2017-10-28T08:50:39.342Z,2612
2017-10-28T08:51:19.868Z,3332
2017-10-28T08:52:00.398Z,3312
2017-10-28T08:52:40.936Z,2508
2017-10-28T08:53:21.475Z,1968
2017-10-28T08:54:02.013Z,2456
2017-10-28T08:54:42.536Z,2956
2017-10-28T08:55:23.070Z,3156
2017-10-28T08:56:03.601Z,3828
2017-10-28T08:56:44.137Z,4120
2017-10-28T08:57:24.669Z,3904
2017-10-28T08:58:05.205Z,4100
2017-10-28T08:58:45.744Z,4896
2017-10-28T08:59:26.284Z,4380
2017-10-28T09:00:06.815Z,3284
2017-10-28T09:00:47.351Z,3284
2017-10-28T09:01:27.897Z,3356
2017-10-28T09:02:08.427Z,3580
2017-10-28T09:02:48.961Z,3944
2017-10-28T09:03:29.504Z,3896
2017-10-28T09:04:10.038Z,2916
2017-10-28T09:04:50.592Z,2916
2017-10-28T09:05:31.161Z,2564
2017-10-28T09:06:11.692Z,3068
2017-10-28T09:06:52.230Z,3568
2017-10-28T09:07:32.761Z,3984
2017-10-28T09:08:13.330Z,4136
2017-10-28T09:08:53.857Z,3932
2017-10-28T09:09:34.403Z,3912
2017-10-28T09:10:14.923Z,3820
2017-10-28T09:10:55.471Z,3244
2017-10-28T09:11:36.010Z,4212
2017-10-28T09:12:16.536Z,4960
2017-10-28T09:12:57.074Z,5184
2017-10-28T09:13:37.613Z,5280
2017-10-28T09:14:18.155Z,4832
2017-10-28T09:14:58.689Z,4220
2017-10-28T09:15:39.221Z,2960
2017-10-28T09:16:19.760Z,2324
2017-10-28T09:17:00.298Z,2344
2017-10-28T09:17:40.828Z,2288
2017-10-28T09:18:21.363Z,2268
2017-10-28T09:19:01.909Z,2588
2017-10-28T09:19:42.454Z,2756
2017-10-28T09:20:22.987Z,2084
2017-10-28T09:21:03.526Z,2124
2017-10-28T09:21:44.058Z,2192
2017-10-28T09:22:24.597Z,2576
2017-10-28T09:23:05.130Z,2360
2017-10-28T09:23:45.675Z,1852
2017-10-28T09:24:26.212Z,1636
2017-10-28T09:25:06.759Z,1956
2017-10-28T09:25:47.291Z,2064
2017-10-28T09:26:27.830Z,2320
2017-10-28T09:27:08.368Z,2520
2017-10-28T09:27:48.909Z,2688
2017-10-28T09:28:29.449Z,2596
2017-10-28T09:29:09.991Z,2608
2017-10-28T09:29:50.542Z,2796
2017-10-28T09:30:31.076Z,2684
2017-10-28T09:31:11.622Z,2628
2017-10-28T09:31:52.147Z,2484
2017-10-28T09:32:32.683Z,2424
2017-10-28T09:33:13.206Z,2860
2017-10-28T09:33:53.744Z,3008
2017-10-28T09:34:34.283Z,2776
2017-10-28T09:35:14.824Z,2792
2017-10-28T09:35:55.383Z,2880
2017-10-28T09:36:35.916Z,2728
2017-10-28T09:37:16.451Z,2160
2017-10-28T09:37:56.992Z,1748
2017-10-28T09:38:37.532Z,1616
2017-10-28T09:39:18.059Z,1696
2017-10-28T09:39:58.595Z,1956